createdAt,value
2023-04-04T00:00:27.411Z,0.80
2023-04-04T00:01:24.643Z,0.80
2023-04-04T00:02:21.409Z,0.80
2023-04-04T00:03:18.257Z,0.90
2023-04-04T00:04:15.108Z,0.90
2023-04-04T00:05:11.776Z,0.85
2023-04-04T00:06:08.805Z,0.82
2023-04-04T00:07:05.573Z,1.00
2023-04-04T00:08:03.157Z,0.90
2023-04-04T00:08:59.744Z,0.70
2023-04-04T00:09:56.442Z,0.80
2023-04-04T00:11:00.589Z,0.80
2023-04-04T00:11:57.234Z,0.80
2023-04-04T00:12:53.898Z,0.80
2023-04-04T00:13:50.727Z,1.00
2023-04-04T00:14:47.319Z,0.90
2023-04-04T00:15:43.908Z,0.82
2023-04-04T00:16:40.580Z,0.80
2023-04-04T00:17:37.205Z,0.90
2023-04-04T00:18:33.746Z,0.90
2023-04-04T00:19:30.306Z,0.90
2023-04-04T00:20:26.938Z,0.90
2023-04-04T00:21:25.585Z,0.90
2023-04-04T00:22:22.163Z,0.80
2023-04-04T00:23:18.737Z,1.00
2023-04-04T00:24:15.321Z,0.80
2023-04-04T00:25:12.281Z,0.85
2023-04-04T00:26:08.893Z,0.93
2023-04-04T00:27:05.726Z,0.85
2023-04-04T00:28:02.412Z,1.00
2023-04-04T00:28:59.061Z,1.00
2023-04-04T00:29:55.946Z,1.08
2023-04-04T00:30:52.577Z,0.80
2023-04-04T00:31:49.175Z,0.95
2023-04-04T00:32:45.979Z,0.98
2023-04-04T00:33:42.613Z,1.00
2023-04-04T00:34:39.127Z,0.90
2023-04-04T00:35:35.676Z,0.90
2023-04-04T00:36:32.480Z,1.00
2023-04-04T00:37:29.115Z,0.80
2023-04-04T00:38:25.681Z,0.80
2023-04-04T00:39:23.623Z,0.93
2023-04-04T00:40:20.241Z,0.98
2023-04-04T00:41:17.500Z,1.00
2023-04-04T00:42:14.163Z,1.00
2023-04-04T00:43:11.494Z,1.20
2023-04-04T00:44:08.208Z,0.80
2023-04-04T00:45:08.525Z,1.00
2023-04-04T00:46:05.492Z,0.85
2023-04-04T00:47:12.984Z,0.90
2023-04-04T00:48:09.985Z,0.80
2023-04-04T00:49:06.604Z,1.10
2023-04-04T00:50:03.427Z,0.75
2023-04-04T00:51:00.050Z,0.80
2023-04-04T00:51:57.979Z,0.82
2023-04-04T00:52:55.519Z,0.80
2023-04-04T00:53:52.713Z,0.80
2023-04-04T00:54:49.362Z,0.88
2023-04-04T00:55:46.170Z,0.80
2023-04-04T00:56:42.857Z,0.95
2023-04-04T00:57:39.718Z,0.95
2023-04-04T00:58:36.473Z,0.80
2023-04-04T00:59:33.398Z,0.90
2023-04-04T01:00:30.628Z,0.80
2023-04-04T01:01:27.507Z,0.90
2023-04-04T01:02:24.978Z,0.90
2023-04-04T01:03:21.997Z,0.80
2023-04-04T01:04:18.705Z,0.90
2023-04-04T01:05:15.919Z,1.00
2023-04-04T01:06:15.558Z,0.80
2023-04-04T01:07:12.142Z,0.90
2023-04-04T01:08:08.942Z,0.90
2023-04-04T01:09:06.361Z,0.95
2023-04-04T01:10:05.771Z,0.88
2023-04-04T01:11:02.459Z,1.00
2023-04-04T01:11:59.209Z,0.93
2023-04-04T01:12:56.895Z,0.90
2023-04-04T01:13:53.726Z,0.80
2023-04-04T01:14:50.405Z,0.90
2023-04-04T01:15:47.707Z,0.90
2023-04-04T01:16:45.982Z,1.00
2023-04-04T01:17:44.737Z,0.90
2023-04-04T01:18:42.873Z,1.00
2023-04-04T01:19:49.568Z,0.80
2023-04-04T01:21:02.445Z,0.98
2023-04-04T01:22:01.368Z,1.00
2023-04-04T01:22:59.455Z,1.00
2023-04-04T01:24:03.879Z,0.88
2023-04-04T01:25:02.234Z,0.90
2023-04-04T01:26:05.907Z,0.90
2023-04-04T01:27:02.606Z,0.90
2023-04-04T01:28:00.388Z,0.90
2023-04-04T01:28:58.592Z,0.90
2023-04-04T01:29:55.509Z,0.90
2023-04-04T01:30:52.170Z,0.80
2023-04-04T01:32:07.647Z,0.90
2023-04-04T01:33:19.392Z,1.10
2023-04-04T01:34:28.556Z,0.80
2023-04-04T01:35:35.764Z,1.00
2023-04-04T01:36:37.671Z,1.10
2023-04-04T01:37:42.529Z,1.17
2023-04-04T01:39:04.916Z,1.17
2023-04-04T01:40:23.984Z,1.42
2023-04-04T01:41:21.625Z,1.17
2023-04-04T01:42:20.086Z,1.10
2023-04-04T01:43:17.641Z,1.40
2023-04-04T01:44:15.995Z,1.13
2023-04-04T01:45:12.720Z,1.15
2023-04-04T01:46:09.342Z,1.40
2023-04-04T01:47:08.696Z,1.20
2023-04-04T01:48:05.468Z,1.90
2023-04-04T01:49:02.031Z,1.60
2023-04-04T01:49:58.635Z,1.40
2023-04-04T01:50:55.308Z,5.43
2023-04-04T01:51:52.993Z,4.57
2023-04-04T01:52:50.064Z,2.83
2023-04-04T01:53:46.710Z,10.13
2023-04-04T01:54:43.261Z,10.18
2023-04-04T01:55:39.855Z,16.70
2023-04-04T01:56:36.425Z,11.73
2023-04-04T01:57:33.106Z,29.40
2023-04-04T01:58:30.005Z,4.15
2023-04-04T01:59:26.676Z,28.60
2023-04-04T02:00:23.353Z,28.48
2023-04-04T02:01:20.056Z,8.13
2023-04-04T02:02:16.746Z,10.60
2023-04-04T02:03:13.422Z,13.50
2023-04-04T02:04:12.588Z,6.57
2023-04-04T02:05:09.257Z,12.52
2023-04-04T02:06:07.887Z,7.88
2023-04-04T02:07:04.678Z,6.78
2023-04-04T02:08:01.565Z,5.90
2023-04-04T02:08:58.411Z,5.35
2023-04-04T02:09:54.981Z,5.28
2023-04-04T02:10:51.589Z,6.15
2023-04-04T02:11:48.552Z,5.63
2023-04-04T02:12:45.875Z,5.30
2023-04-04T02:13:44.446Z,5.65
2023-04-04T02:14:41.300Z,6.15
2023-04-04T02:15:38.103Z,5.32
2023-04-04T02:16:34.711Z,5.00
2023-04-04T02:17:31.282Z,5.50
2023-04-04T02:18:28.395Z,5.97
2023-04-04T02:19:25.907Z,5.70
2023-04-04T02:20:22.673Z,5.93
2023-04-04T02:21:19.273Z,5.88
2023-04-04T02:22:16.282Z,5.03
2023-04-04T02:23:12.912Z,5.93
2023-04-04T02:24:09.673Z,6.10
2023-04-04T02:25:07.781Z,5.15
2023-04-04T02:26:04.658Z,4.93
2023-04-04T02:27:01.346Z,4.75
2023-04-04T02:27:57.994Z,4.45
2023-04-04T02:28:54.602Z,4.07
2023-04-04T02:29:51.260Z,3.90
2023-04-04T02:30:47.797Z,4.30
2023-04-04T02:31:44.454Z,4.55
2023-04-04T02:32:41.468Z,4.30
2023-04-04T02:33:38.120Z,4.03
2023-04-04T02:34:34.829Z,3.05
2023-04-04T02:35:32.287Z,2.40
2023-04-04T02:36:29.071Z,3.22
2023-04-04T02:37:25.645Z,3.70
2023-04-04T02:38:22.853Z,3.67
2023-04-04T02:39:19.724Z,3.28
2023-04-04T02:40:16.470Z,3.25
2023-04-04T02:41:13.048Z,2.78
2023-04-04T02:42:09.627Z,2.70
2023-04-04T02:43:06.239Z,2.65
2023-04-04T02:44:02.816Z,2.50
2023-04-04T02:44:59.396Z,3.22
2023-04-04T02:45:56.101Z,2.58
2023-04-04T02:46:52.909Z,3.00
2023-04-04T02:47:53.009Z,2.50
2023-04-04T02:48:50.508Z,2.90
2023-04-04T02:49:47.331Z,2.90
2023-04-04T02:50:44.161Z,2.92
2023-04-04T02:51:41.304Z,3.28
2023-04-04T02:52:38.228Z,3.05
2023-04-04T02:53:34.852Z,3.17
2023-04-04T02:54:31.833Z,2.60
2023-04-04T02:55:28.604Z,3.25
2023-04-04T02:56:25.232Z,3.03
2023-04-04T02:57:21.897Z,3.28
2023-04-04T02:58:18.512Z,3.15
2023-04-04T02:59:15.165Z,3.30
2023-04-04T03:00:12.282Z,3.10
2023-04-04T03:01:08.966Z,2.67
2023-04-04T03:02:05.646Z,2.53
2023-04-04T03:03:02.491Z,2.92
2023-04-04T03:03:59.360Z,2.83
2023-04-04T03:04:56.193Z,2.40
2023-04-04T03:05:53.060Z,2.75
2023-04-04T03:06:49.927Z,2.75
2023-04-04T03:07:46.932Z,2.50
2023-04-04T03:08:43.749Z,2.80
2023-04-04T03:09:40.334Z,2.70
2023-04-04T03:10:37.385Z,2.42
2023-04-04T03:11:34.688Z,3.00
2023-04-04T03:12:31.668Z,2.42
2023-04-04T03:13:28.436Z,2.85
2023-04-04T03:14:26.697Z,3.47
2023-04-04T03:15:23.828Z,2.85
2023-04-04T03:16:20.621Z,2.88
2023-04-04T03:17:18.357Z,3.53
2023-04-04T03:18:15.113Z,2.90
2023-04-04T03:19:11.780Z,3.00
2023-04-04T03:20:09.140Z,2.78
2023-04-04T03:21:05.789Z,3.60
2023-04-04T03:22:02.394Z,3.30
2023-04-04T03:22:58.955Z,3.35
2023-04-04T03:23:55.737Z,3.33
2023-04-04T03:24:52.400Z,3.00
2023-04-04T03:25:48.972Z,3.13
2023-04-04T03:26:45.735Z,3.67
2023-04-04T03:27:42.315Z,2.85
2023-04-04T03:28:39.035Z,3.67
2023-04-04T03:29:35.620Z,3.50
2023-04-04T03:30:32.195Z,3.67
2023-04-04T03:31:28.788Z,3.20
2023-04-04T03:32:26.108Z,3.55
2023-04-04T03:33:22.848Z,3.50
2023-04-04T03:34:19.648Z,3.50
2023-04-04T03:35:16.334Z,3.10
2023-04-04T03:36:13.623Z,3.20
2023-04-04T03:37:10.833Z,3.95
2023-04-04T03:38:08.370Z,3.28
2023-04-04T03:39:05.051Z,3.47
2023-04-04T03:40:02.224Z,3.30
2023-04-04T03:41:03.434Z,3.60
2023-04-04T03:42:00.041Z,3.30
2023-04-04T03:42:56.629Z,3.47
2023-04-04T03:43:53.213Z,3.50
2023-04-04T03:44:49.796Z,3.75
2023-04-04T03:45:47.544Z,3.70
2023-04-04T03:46:44.204Z,3.40
2023-04-04T03:47:40.940Z,3.30
2023-04-04T03:48:37.636Z,3.97
2023-04-04T03:49:35.097Z,3.40
2023-04-04T03:50:31.687Z,3.97
2023-04-04T03:51:28.566Z,3.50
2023-04-04T03:52:25.116Z,3.50
2023-04-04T03:53:21.682Z,3.13
2023-04-04T03:54:19.047Z,3.70
2023-04-04T03:55:15.911Z,3.60
2023-04-04T03:56:12.523Z,3.78
2023-04-04T03:57:09.128Z,3.60
2023-04-04T03:58:05.717Z,3.97
2023-04-04T03:59:02.386Z,3.80
2023-04-04T03:59:59.012Z,4.18
2023-04-04T04:00:55.949Z,3.72
2023-04-04T04:01:52.598Z,4.18
2023-04-04T04:02:49.350Z,4.30
2023-04-04T04:03:46.904Z,3.90
2023-04-04T04:04:43.613Z,3.33
2023-04-04T04:05:40.445Z,3.85
2023-04-04T04:06:37.410Z,3.35
2023-04-04T04:07:34.035Z,4.15
2023-04-04T04:08:30.656Z,3.63
2023-04-04T04:09:27.235Z,3.90
2023-04-04T04:10:23.837Z,4.32
2023-04-04T04:11:20.413Z,4.78
2023-04-04T04:12:17.020Z,4.53
2023-04-04T04:13:13.599Z,3.65
2023-04-04T04:14:10.196Z,3.97
2023-04-04T04:15:07.286Z,4.03
2023-04-04T04:16:03.952Z,3.88
2023-04-04T04:17:00.515Z,3.58
2023-04-04T04:17:57.249Z,3.95
2023-04-04T04:18:53.883Z,3.95
2023-04-04T04:19:50.497Z,4.05
2023-04-04T04:20:47.024Z,5.45
2023-04-04T04:21:44.068Z,4.15
2023-04-04T04:22:48.908Z,3.92
2023-04-04T04:23:45.510Z,3.58
2023-04-04T04:24:42.152Z,3.70
2023-04-04T04:25:38.785Z,3.85
2023-04-04T04:26:36.920Z,4.05
2023-04-04T04:27:35.216Z,4.15
2023-04-04T04:28:33.833Z,3.60
2023-04-04T04:29:31.426Z,4.25
2023-04-04T04:30:28.042Z,4.07
2023-04-04T04:31:24.678Z,4.35
2023-04-04T04:32:21.441Z,4.07
2023-04-04T04:33:19.283Z,4.85
2023-04-04T04:34:15.843Z,4.50
2023-04-04T04:35:12.491Z,4.00
2023-04-04T04:36:09.335Z,4.57
2023-04-04T04:37:06.308Z,4.85
2023-04-04T04:38:02.925Z,4.60
2023-04-04T04:38:59.672Z,4.25
2023-04-04T04:39:56.280Z,4.00
2023-04-04T04:40:52.855Z,3.67
2023-04-04T04:41:50.408Z,4.03
2023-04-04T04:42:47.016Z,4.38
2023-04-04T04:43:43.590Z,3.90
2023-04-04T04:44:40.277Z,3.13
2023-04-04T04:45:37.674Z,3.20
2023-04-04T04:46:34.731Z,4.60
2023-04-04T04:47:32.717Z,4.10
2023-04-04T04:48:29.332Z,3.83
2023-04-04T04:49:26.459Z,3.70
2023-04-04T04:50:23.152Z,3.85
2023-04-04T04:51:19.750Z,4.13
2023-04-04T04:52:16.425Z,4.15
2023-04-04T04:53:13.892Z,3.78
2023-04-04T04:54:11.290Z,4.15
2023-04-04T04:55:08.539Z,4.00
2023-04-04T04:56:05.485Z,3.80
2023-04-04T04:57:02.829Z,4.15
2023-04-04T04:57:59.488Z,4.70
2023-04-04T04:58:56.248Z,8.02
2023-04-04T04:59:52.881Z,8.68
2023-04-04T05:00:49.670Z,8.15
2023-04-04T05:01:46.574Z,21.60
2023-04-04T05:02:43.241Z,11.27
2023-04-04T05:03:39.868Z,19.60
2023-04-04T05:04:36.486Z,18.80
2023-04-04T05:05:36.639Z,13.93
2023-04-04T05:06:33.485Z,16.13
2023-04-04T05:07:30.111Z,12.52
2023-04-04T05:08:26.747Z,12.05
2023-04-04T05:09:23.722Z,12.18
2023-04-04T05:10:20.419Z,12.98
2023-04-04T05:11:17.015Z,12.43
2023-04-04T05:12:13.733Z,11.65
2023-04-04T05:13:10.692Z,13.95
2023-04-04T05:14:07.284Z,13.45
2023-04-04T05:15:04.260Z,14.93
2023-04-04T05:16:00.966Z,14.27
2023-04-04T05:16:57.567Z,16.65
2023-04-04T05:17:54.202Z,13.32
2023-04-04T05:18:51.041Z,13.88
2023-04-04T05:19:47.710Z,14.23
2023-04-04T05:20:49.867Z,10.98
2023-04-04T05:21:46.616Z,10.70
2023-04-04T05:22:44.388Z,11.77
2023-04-04T05:23:40.958Z,9.65
2023-04-04T05:24:37.788Z,7.43
2023-04-04T05:25:34.348Z,5.97
2023-04-04T05:26:31.202Z,5.38
2023-04-04T05:27:27.927Z,4.75
2023-04-04T05:28:24.608Z,4.78
2023-04-04T05:29:21.649Z,4.38
2023-04-04T05:30:18.305Z,4.85
2023-04-04T05:31:14.863Z,4.93
2023-04-04T05:32:11.642Z,5.40
2023-04-04T05:33:08.358Z,4.90
2023-04-04T05:34:08.581Z,4.30
2023-04-04T05:35:05.857Z,3.50
2023-04-04T05:36:03.040Z,3.80
2023-04-04T05:36:59.857Z,4.00
2023-04-04T05:37:57.127Z,4.20
2023-04-04T05:38:53.693Z,3.00
2023-04-04T05:39:50.570Z,3.50
2023-04-04T05:40:47.630Z,3.58
2023-04-04T05:41:44.192Z,3.65
2023-04-04T05:42:40.818Z,3.30
2023-04-04T05:43:37.396Z,3.60
2023-04-04T05:44:36.284Z,3.60
2023-04-04T05:45:32.894Z,4.00
2023-04-04T05:46:30.098Z,3.60
2023-04-04T05:47:26.813Z,3.78
2023-04-04T05:48:23.435Z,3.92
2023-04-04T05:49:20.081Z,3.90
2023-04-04T05:50:16.677Z,3.60
2023-04-04T05:51:13.269Z,3.00
2023-04-04T05:52:10.776Z,3.05
2023-04-04T05:53:07.409Z,3.05
2023-04-04T05:54:04.070Z,2.80
2023-04-04T05:55:00.803Z,2.60
2023-04-04T05:55:58.671Z,2.47
2023-04-04T05:56:55.900Z,2.78
2023-04-04T05:57:52.990Z,2.80
2023-04-04T05:58:49.716Z,2.80
2023-04-04T05:59:46.696Z,3.03
2023-04-04T06:00:43.752Z,3.08
2023-04-04T06:01:40.668Z,3.10
2023-04-04T06:02:37.497Z,3.47
2023-04-04T06:03:34.248Z,3.15
2023-04-04T06:04:30.968Z,3.60
2023-04-04T06:05:27.559Z,3.60
2023-04-04T06:06:24.273Z,3.45
2023-04-04T06:07:21.035Z,3.38
2023-04-04T06:08:17.710Z,3.38
2023-04-04T06:09:14.278Z,3.50
2023-04-04T06:10:11.345Z,3.60
2023-04-04T06:11:07.939Z,3.35
2023-04-04T06:12:04.734Z,3.67
2023-04-04T06:13:01.343Z,3.95
2023-04-04T06:13:57.935Z,3.55
2023-04-04T06:14:54.467Z,3.78
2023-04-04T06:15:51.339Z,4.78
2023-04-04T06:16:48.043Z,5.38
2023-04-04T06:17:45.136Z,5.07
2023-04-04T06:18:41.786Z,5.07
2023-04-04T06:19:38.393Z,5.35
2023-04-04T06:20:35.118Z,4.95
2023-04-04T06:21:31.709Z,4.68
2023-04-04T06:22:28.307Z,5.15
2023-04-04T06:23:24.907Z,5.22
2023-04-04T06:24:22.066Z,5.60
2023-04-04T06:25:18.961Z,6.00
2023-04-04T06:26:16.682Z,5.50
2023-04-04T06:27:13.240Z,5.40
2023-04-04T06:28:11.118Z,6.25
2023-04-04T06:29:07.772Z,5.32
2023-04-04T06:30:04.677Z,5.57
2023-04-04T06:31:01.949Z,6.13
2023-04-04T06:31:58.516Z,7.10
2023-04-04T06:32:55.325Z,8.38
2023-04-04T06:33:51.924Z,8.40
2023-04-04T06:34:48.532Z,9.60
2023-04-04T06:35:45.127Z,9.85
2023-04-04T06:36:41.770Z,8.43
2023-04-04T06:37:38.337Z,8.93
2023-04-04T06:38:34.922Z,8.15
2023-04-04T06:39:31.967Z,8.20
2023-04-04T06:40:28.826Z,8.38
2023-04-04T06:41:25.680Z,11.02
2023-04-04T06:42:22.626Z,11.10
2023-04-04T06:43:19.304Z,20.25
2023-04-04T06:44:15.997Z,11.75
2023-04-04T06:45:12.749Z,10.80
2023-04-04T06:46:09.478Z,8.98
2023-04-04T06:47:06.433Z,5.85
2023-04-04T06:48:03.661Z,5.10
2023-04-04T06:49:00.433Z,6.15
2023-04-04T06:49:56.947Z,8.20
2023-04-04T06:50:53.641Z,7.20
2023-04-04T06:51:50.972Z,7.03
2023-04-04T06:52:47.710Z,5.25
2023-04-04T06:53:44.423Z,2.67
2023-04-04T06:54:41.146Z,3.03
2023-04-04T06:55:37.810Z,2.17
2023-04-04T06:56:35.476Z,2.10
2023-04-04T06:57:32.125Z,1.58
2023-04-04T06:58:28.942Z,1.40
2023-04-04T06:59:25.629Z,1.38
2023-04-04T07:00:22.260Z,1.65
2023-04-04T07:01:19.114Z,1.30
2023-04-04T07:02:15.917Z,1.02
2023-04-04T07:03:12.564Z,1.10
2023-04-04T07:04:09.214Z,1.30
2023-04-04T07:05:06.327Z,1.23
2023-04-04T07:06:04.466Z,1.13
2023-04-04T07:07:01.737Z,1.02
2023-04-04T07:07:58.307Z,0.85
2023-04-04T07:08:54.911Z,0.93
2023-04-04T07:09:51.591Z,1.40
2023-04-04T07:10:48.234Z,1.20
2023-04-04T07:11:44.910Z,1.00
2023-04-04T07:12:42.414Z,1.05
2023-04-04T07:13:39.098Z,1.00
2023-04-04T07:14:35.673Z,0.75
2023-04-04T07:15:32.309Z,0.93
2023-04-04T07:16:28.914Z,1.30
2023-04-04T07:17:25.675Z,1.20
2023-04-04T07:18:22.283Z,1.10
2023-04-04T07:19:18.921Z,0.98
2023-04-04T07:20:15.787Z,0.90
2023-04-04T07:21:12.636Z,1.08
2023-04-04T07:22:09.234Z,0.82
2023-04-04T07:23:06.494Z,0.93
2023-04-04T07:24:03.945Z,1.27
2023-04-04T07:25:00.539Z,0.90
2023-04-04T07:25:57.376Z,1.25
2023-04-04T07:26:54.047Z,1.25
2023-04-04T07:27:57.317Z,1.10
2023-04-04T07:29:02.675Z,0.98
2023-04-04T07:29:59.315Z,1.00
2023-04-04T07:30:59.500Z,1.00
2023-04-04T07:31:56.397Z,0.80
2023-04-04T07:33:00.391Z,1.00
2023-04-04T07:33:57.079Z,0.88
2023-04-04T07:34:53.650Z,0.80
2023-04-04T07:35:50.209Z,1.02
2023-04-04T07:36:46.945Z,1.00
2023-04-04T07:37:43.579Z,0.82
2023-04-04T07:38:40.206Z,0.80
2023-04-04T07:39:36.931Z,1.00
2023-04-04T07:40:33.521Z,1.00
2023-04-04T07:41:30.159Z,1.35
2023-04-04T07:42:26.822Z,1.67
2023-04-04T07:43:23.921Z,1.48
2023-04-04T07:44:20.634Z,1.00
2023-04-04T07:45:18.109Z,1.00
2023-04-04T07:46:15.879Z,1.40
2023-04-04T07:47:12.475Z,1.63
2023-04-04T07:48:09.458Z,1.10
2023-04-04T07:49:06.188Z,1.30
2023-04-04T07:50:04.479Z,1.08
2023-04-04T07:51:05.374Z,1.00
2023-04-04T07:52:02.354Z,2.00
2023-04-04T07:52:59.067Z,1.48
2023-04-04T07:53:56.451Z,1.80
2023-04-04T07:54:53.294Z,1.20
2023-04-04T07:55:49.828Z,1.42
2023-04-04T07:56:46.389Z,2.03
2023-04-04T07:57:43.748Z,1.20
2023-04-04T07:58:40.376Z,1.45
2023-04-04T07:59:37.791Z,1.20
2023-04-04T08:00:34.560Z,1.35
2023-04-04T08:01:31.351Z,1.10
2023-04-04T08:02:28.294Z,1.00
2023-04-04T08:03:25.857Z,1.27
2023-04-04T08:04:22.696Z,1.00
2023-04-04T08:05:19.517Z,1.15
2023-04-04T08:06:16.115Z,1.17
2023-04-04T08:07:12.709Z,1.00
2023-04-04T08:08:09.325Z,2.10
2023-04-04T08:09:06.040Z,1.42
2023-04-04T08:10:02.922Z,1.80
2023-04-04T08:10:59.585Z,1.58
2023-04-04T08:11:56.336Z,1.00
2023-04-04T08:12:53.314Z,1.10
2023-04-04T08:13:50.024Z,1.10
2023-04-04T08:14:46.761Z,1.40
2023-04-04T08:15:44.022Z,1.10
2023-04-04T08:16:41.024Z,0.98
2023-04-04T08:17:38.434Z,1.10
2023-04-04T08:18:35.073Z,1.00
2023-04-04T08:19:31.751Z,0.90
2023-04-04T08:20:28.635Z,0.90
2023-04-04T08:21:25.248Z,0.93
2023-04-04T08:22:22.288Z,1.10
2023-04-04T08:23:18.876Z,0.85
2023-04-04T08:24:15.785Z,0.80
2023-04-04T08:25:12.758Z,0.90
2023-04-04T08:26:09.806Z,0.80
2023-04-04T08:27:06.793Z,0.93
2023-04-04T08:28:05.620Z,0.80
2023-04-04T08:29:02.734Z,0.80
2023-04-04T08:29:59.353Z,0.90
2023-04-04T08:30:56.160Z,0.90
2023-04-04T08:31:54.094Z,0.90
2023-04-04T08:32:50.831Z,0.70
2023-04-04T08:33:47.981Z,0.80
2023-04-04T08:34:44.809Z,0.90
2023-04-04T08:35:41.507Z,0.90
2023-04-04T08:36:38.202Z,0.82
2023-04-04T08:37:38.374Z,0.80
2023-04-04T08:38:35.142Z,0.75
2023-04-04T08:39:32.110Z,0.80
2023-04-04T08:40:30.333Z,0.90
2023-04-04T08:41:27.672Z,0.90
2023-04-04T08:42:28.058Z,0.80
2023-04-04T08:43:26.589Z,0.60
2023-04-04T08:44:26.260Z,0.80
2023-04-04T08:45:24.679Z,0.90
2023-04-04T08:46:25.721Z,0.85
2023-04-04T08:47:25.190Z,0.80
2023-04-04T08:48:24.084Z,0.80
2023-04-04T08:49:22.283Z,0.80
2023-04-04T08:50:19.535Z,0.80
2023-04-04T08:51:17.540Z,0.77
2023-04-04T08:52:16.383Z,0.85
2023-04-04T08:53:16.040Z,0.80
2023-04-04T08:54:14.396Z,0.70
2023-04-04T08:55:11.437Z,0.80
2023-04-04T08:56:08.036Z,0.80
2023-04-04T08:57:04.761Z,0.80
2023-04-04T08:58:01.584Z,0.88
2023-04-04T08:58:59.285Z,0.90
2023-04-04T08:59:56.246Z,0.90
2023-04-04T09:00:54.416Z,0.77
2023-04-04T09:02:01.370Z,0.80
2023-04-04T09:03:17.280Z,0.90
2023-04-04T09:04:14.020Z,0.80
2023-04-04T09:05:12.645Z,0.80
2023-04-04T09:06:09.858Z,0.80
2023-04-04T09:07:07.107Z,0.80
2023-04-04T09:08:07.073Z,0.82
2023-04-04T09:09:04.350Z,0.75
2023-04-04T09:10:02.345Z,0.70
2023-04-04T09:11:03.478Z,0.90
2023-04-04T09:12:03.666Z,0.80
2023-04-04T09:13:14.937Z,0.70
2023-04-04T09:14:12.577Z,0.90
2023-04-04T09:15:10.188Z,0.75
2023-04-04T09:16:07.309Z,0.90
2023-04-04T09:17:04.435Z,0.75
2023-04-04T09:18:01.029Z,0.70
2023-04-04T09:18:57.784Z,0.80
2023-04-04T09:19:54.569Z,0.80
2023-04-04T09:20:51.407Z,0.80
2023-04-04T09:21:49.229Z,0.80
2023-04-04T09:22:45.977Z,0.82
2023-04-04T09:23:43.892Z,0.63
2023-04-04T09:24:42.924Z,0.80
2023-04-04T09:26:02.516Z,0.95
2023-04-04T09:27:00.203Z,0.70
2023-04-04T09:27:58.146Z,0.80
2023-04-04T09:28:55.736Z,0.80
2023-04-04T09:29:52.922Z,0.90
2023-04-04T09:30:51.228Z,0.80
2023-04-04T09:31:49.673Z,0.90
2023-04-04T09:32:47.185Z,0.85
2023-04-04T09:33:43.973Z,0.80
2023-04-04T09:34:42.071Z,0.90
2023-04-04T09:35:41.599Z,0.70
2023-04-04T09:36:39.201Z,0.80
2023-04-04T09:37:35.816Z,0.90
2023-04-04T09:38:32.706Z,0.93
2023-04-04T09:39:29.494Z,0.90
2023-04-04T09:40:29.082Z,0.80
2023-04-04T09:41:26.342Z,0.82
2023-04-04T09:42:25.040Z,0.82
2023-04-04T09:43:24.405Z,0.90
2023-04-04T09:44:21.307Z,0.93
2023-04-04T09:45:25.924Z,0.90
2023-04-04T09:46:28.760Z,0.90
2023-04-04T09:48:34.760Z,1.08
2023-04-04T09:49:32.744Z,0.90
2023-04-04T09:50:30.409Z,0.80
2023-04-04T09:51:42.606Z,0.93
2023-04-04T09:52:41.674Z,1.00
2023-04-04T09:53:41.631Z,0.98
2023-04-04T09:54:47.787Z,0.85
2023-04-04T09:55:51.422Z,0.82
2023-04-04T09:56:49.395Z,1.00
2023-04-04T09:57:47.505Z,1.10
2023-04-04T09:59:02.597Z,0.93
2023-04-04T10:00:03.497Z,1.02
2023-04-04T10:01:02.146Z,0.90
2023-04-04T10:02:02.260Z,1.20
2023-04-04T10:03:02.929Z,1.00
2023-04-04T10:03:59.693Z,1.23
2023-04-04T10:05:06.036Z,1.20
2023-04-04T10:06:06.956Z,1.10
2023-04-04T10:07:04.146Z,1.15
2023-04-04T10:08:01.538Z,0.98
2023-04-04T10:09:01.267Z,1.13
2023-04-04T10:10:01.387Z,1.90
2023-04-04T10:11:09.496Z,1.05
2023-04-04T10:12:11.482Z,1.13
2023-04-04T10:13:11.460Z,1.38
2023-04-04T10:14:09.728Z,1.10
2023-04-04T10:15:07.083Z,1.20
2023-04-04T10:16:04.660Z,1.38
2023-04-04T10:17:01.550Z,1.67
2023-04-04T10:17:59.896Z,1.30
2023-04-04T10:18:57.284Z,1.27
2023-04-04T10:19:54.541Z,1.42
2023-04-04T10:20:55.062Z,1.30
2023-04-04T10:22:52.604Z,1.00
2023-04-04T10:23:49.439Z,1.10
2023-04-04T10:24:46.426Z,1.20
2023-04-04T10:25:43.030Z,1.98
2023-04-04T10:26:39.690Z,1.95
2023-04-04T10:27:38.740Z,1.30
2023-04-04T10:28:35.429Z,1.27
2023-04-04T10:29:32.536Z,1.80
2023-04-04T10:30:29.268Z,1.73
2023-04-04T10:31:26.345Z,1.40
2023-04-04T10:32:45.071Z,1.65
2023-04-04T10:33:42.216Z,1.00
2023-04-04T10:34:45.018Z,1.23
2023-04-04T10:35:45.714Z,1.27
2023-04-04T10:36:49.210Z,1.15
2023-04-04T10:37:58.967Z,1.30
2023-04-04T10:39:09.838Z,1.23
2023-04-04T10:40:10.513Z,1.13
2023-04-04T10:41:08.184Z,1.05
2023-04-04T10:42:07.219Z,1.60
2023-04-04T10:43:05.466Z,1.50
2023-04-04T10:44:14.659Z,1.20
2023-04-04T10:45:21.363Z,1.00
2023-04-04T10:46:23.548Z,1.20
2023-04-04T10:47:23.841Z,1.20
2023-04-04T10:48:23.094Z,1.30
2023-04-04T10:49:21.661Z,1.20
2023-04-04T10:50:20.848Z,1.70
2023-04-04T10:51:17.719Z,1.30
2023-04-04T10:52:19.846Z,1.40
2023-04-04T10:53:16.805Z,2.10
2023-04-04T10:54:14.232Z,1.33
2023-04-04T10:55:15.897Z,1.27
2023-04-04T10:56:13.252Z,1.23
2023-04-04T10:57:11.081Z,1.40
2023-04-04T10:58:08.986Z,1.10
2023-04-04T10:59:17.326Z,1.40
2023-04-04T11:00:19.462Z,1.30
2023-04-04T11:01:21.488Z,1.10
2023-04-04T11:02:48.338Z,1.40
2023-04-04T11:04:18.816Z,1.52
2023-04-04T11:05:23.877Z,2.05
2023-04-04T11:06:24.341Z,1.70
2023-04-04T11:07:21.288Z,2.20
2023-04-04T11:08:21.904Z,1.88
2023-04-04T11:09:52.661Z,1.27
2023-04-04T11:10:51.727Z,1.30
2023-04-04T11:12:11.049Z,2.10
2023-04-04T11:13:22.483Z,1.60
2023-04-04T11:14:29.874Z,1.75
2023-04-04T11:15:26.651Z,2.20
2023-04-04T11:16:24.475Z,2.08
2023-04-04T11:17:44.461Z,2.00
2023-04-04T11:18:45.642Z,1.98
2023-04-04T11:19:58.817Z,1.63
2023-04-04T11:20:55.408Z,1.50
2023-04-04T11:21:52.354Z,1.70
2023-04-04T11:23:09.799Z,2.10
2023-04-04T11:24:06.312Z,1.88
2023-04-04T11:25:24.886Z,1.88
2023-04-04T11:26:30.637Z,2.30
2023-04-04T11:27:29.046Z,1.77
2023-04-04T11:28:27.481Z,1.48
2023-04-04T11:29:51.724Z,1.50
2023-04-04T11:30:49.047Z,1.40
2023-04-04T11:31:45.961Z,1.85
2023-04-04T11:32:50.092Z,1.40
2023-04-04T11:33:56.221Z,1.50
2023-04-04T11:34:52.824Z,1.83
2023-04-04T11:35:50.438Z,1.60
2023-04-04T11:36:52.622Z,1.40
2023-04-04T11:37:52.748Z,1.30
2023-04-04T11:38:50.369Z,1.42
2023-04-04T11:39:57.391Z,1.20
2023-04-04T11:40:55.060Z,2.53
2023-04-04T11:42:05.770Z,1.55
2023-04-04T11:43:07.602Z,1.80
2023-04-04T11:44:10.102Z,1.52
2023-04-04T11:45:07.888Z,1.90
2023-04-04T11:46:08.976Z,1.30
2023-04-04T11:47:06.042Z,1.75
2023-04-04T11:48:05.120Z,1.40
2023-04-04T11:49:03.440Z,1.27
2023-04-04T11:50:01.623Z,1.30
2023-04-04T11:50:58.253Z,1.40
2023-04-04T11:51:54.865Z,1.10
2023-04-04T11:52:54.034Z,1.38
2023-04-04T11:53:51.647Z,1.73
2023-04-04T11:54:49.129Z,1.40
2023-04-04T11:55:50.209Z,1.67
2023-04-04T11:56:46.960Z,1.90
2023-04-04T11:57:44.264Z,1.42
2023-04-04T11:58:40.897Z,1.75
2023-04-04T11:59:49.457Z,1.80
2023-04-04T12:00:46.990Z,1.60
2023-04-04T12:01:45.021Z,1.65
2023-04-04T12:02:41.939Z,2.40
2023-04-04T12:03:39.629Z,1.90
2023-04-04T12:04:37.845Z,1.85
2023-04-04T12:05:35.812Z,1.75
2023-04-04T12:06:38.628Z,2.28
2023-04-04T12:07:35.717Z,1.30
2023-04-04T12:08:33.853Z,1.50
2023-04-04T12:09:30.669Z,1.70
2023-04-04T12:10:29.925Z,1.50
2023-04-04T12:11:28.869Z,1.63
2023-04-04T12:12:27.682Z,1.30
2023-04-04T12:13:31.188Z,1.65
2023-04-04T12:14:27.996Z,1.40
2023-04-04T12:15:27.399Z,1.23
2023-04-04T12:16:24.122Z,1.40
2023-04-04T12:17:20.746Z,1.42
2023-04-04T12:18:23.520Z,1.20
2023-04-04T12:19:21.173Z,1.60
2023-04-04T12:20:17.960Z,1.75
2023-04-04T12:21:15.252Z,1.90
2023-04-04T12:22:11.955Z,1.70
2023-04-04T12:23:09.667Z,1.67
2023-04-04T12:24:09.598Z,2.33
2023-04-04T12:25:06.924Z,2.20
2023-04-04T12:26:06.064Z,2.83
2023-04-04T12:27:03.747Z,2.40
2023-04-04T12:28:02.845Z,2.70
2023-04-04T12:29:00.006Z,2.50
2023-04-04T12:29:57.113Z,3.03
2023-04-04T12:30:53.981Z,2.78
2023-04-04T12:31:52.475Z,2.90
2023-04-04T12:32:50.873Z,2.75
2023-04-04T12:33:47.653Z,3.78
2023-04-04T12:34:49.965Z,3.15
2023-04-04T12:35:54.974Z,3.80
2023-04-04T12:36:52.893Z,3.13
2023-04-04T12:38:10.783Z,3.15
2023-04-04T12:39:09.914Z,3.92
2023-04-04T12:40:10.896Z,4.22
2023-04-04T12:41:09.756Z,3.35
2023-04-04T12:42:07.621Z,2.58
2023-04-04T12:43:16.905Z,3.30
2023-04-04T12:44:30.432Z,2.83
2023-04-04T12:45:27.999Z,3.90
2023-04-04T12:46:27.345Z,3.63
2023-04-04T12:47:26.384Z,3.97
2023-04-04T12:48:28.731Z,3.65
2023-04-04T12:49:29.498Z,3.40
2023-04-04T12:50:28.464Z,4.65
2023-04-04T12:51:33.158Z,4.50
2023-04-04T12:52:32.966Z,4.30
2023-04-04T12:53:30.502Z,3.30
2023-04-04T12:54:36.039Z,3.17
2023-04-04T12:55:33.094Z,3.00
2023-04-04T12:56:29.864Z,3.05
2023-04-04T12:57:28.185Z,2.85
2023-04-04T12:58:27.235Z,3.00